createdAt,value
2022-10-01T00:01:40.478Z,75.97
2022-10-01T00:04:07.122Z,75.97
2022-10-01T00:06:33.731Z,75.88
2022-10-01T00:09:00.309Z,75.96
2022-10-01T00:11:27.003Z,75.96
2022-10-01T00:13:54.575Z,76.00
2022-10-01T00:16:24.580Z,75.72
2022-10-01T00:18:53.762Z,75.57
2022-10-01T00:21:25.900Z,75.39
2022-10-01T00:23:59.162Z,75.14
2022-10-01T00:26:28.909Z,75.50
2022-10-01T00:28:58.265Z,75.72
2022-10-01T00:31:25.777Z,76.38
2022-10-01T00:33:53.879Z,76.89
2022-10-01T00:36:21.245Z,77.57
2022-10-01T00:38:48.373Z,78.53
2022-10-01T00:41:16.968Z,79.10
2022-10-01T00:43:49.975Z,80.53
2022-10-01T00:46:22.386Z,81.82
2022-10-01T00:49:08.795Z,82.64
2022-10-01T00:51:40.906Z,83.92
2022-10-01T00:54:13.470Z,85.22
2022-10-01T00:56:41.381Z,86.01
2022-10-01T00:59:08.006Z,87.38
2022-10-01T01:01:37.484Z,87.89
2022-10-01T01:04:16.505Z,88.34
2022-10-01T01:06:46.516Z,89.10
2022-10-01T01:09:13.349Z,89.15
2022-10-01T01:11:46.138Z,89.75
2022-10-01T01:14:51.205Z,90.36
2022-10-01T01:17:31.092Z,90.61
2022-10-01T01:20:29.029Z,90.82
2022-10-01T01:23:17.166Z,91.25
2022-10-01T01:26:11.986Z,91.78
2022-10-01T01:28:44.567Z,91.88
2022-10-01T01:31:16.327Z,92.39
2022-10-01T01:33:47.467Z,92.48
2022-10-01T01:36:18.432Z,92.36
2022-10-01T01:38:56.087Z,92.88
2022-10-01T01:41:26.032Z,93.27
2022-10-01T01:43:56.625Z,93.53
2022-10-01T01:46:32.193Z,93.40
2022-10-01T01:49:02.364Z,93.49
2022-10-01T01:51:43.273Z,93.83
2022-10-01T01:54:10.007Z,93.94
2022-10-01T01:56:37.028Z,94.16
2022-10-01T01:59:03.855Z,94.14
2022-10-01T02:01:46.848Z,94.22
2022-10-01T02:04:29.061Z,94.36
2022-10-01T02:07:20.772Z,94.62
2022-10-01T02:09:53.587Z,94.45
2022-10-01T02:12:35.653Z,94.67
2022-10-01T02:15:11.828Z,94.38
2022-10-01T02:17:41.175Z,94.21
2022-10-01T02:20:15.787Z,94.56
2022-10-01T02:22:50.212Z,94.51
2022-10-01T02:25:20.234Z,94.46
2022-10-01T02:27:53.261Z,94.27
2022-10-01T02:30:19.934Z,94.49
2022-10-01T02:32:50.027Z,94.59
2022-10-01T02:35:18.672Z,94.62
2022-10-01T02:37:48.463Z,94.48
2022-10-01T02:40:19.342Z,94.72
2022-10-01T02:42:51.322Z,94.48
2022-10-01T02:45:24.648Z,94.99
2022-10-01T02:47:58.918Z,94.80
2022-10-01T02:50:31.680Z,95.08
2022-10-01T02:53:28.792Z,95.14
2022-10-01T02:55:57.213Z,95.62
2022-10-01T02:58:24.134Z,95.71
2022-10-01T03:00:50.818Z,95.66
2022-10-01T03:03:17.541Z,95.76
2022-10-01T03:05:44.711Z,96.01
2022-10-01T03:08:11.369Z,96.27
2022-10-01T03:10:37.964Z,96.26
2022-10-01T03:13:06.722Z,96.20
2022-10-01T03:15:44.741Z,96.41
2022-10-01T03:18:16.296Z,96.44
2022-10-01T03:20:43.791Z,96.60
2022-10-01T03:23:11.007Z,96.67
2022-10-01T03:25:43.851Z,96.87
2022-10-01T03:28:10.517Z,96.85
2022-10-01T03:30:37.198Z,96.92
2022-10-01T03:33:04.380Z,97.06
2022-10-01T03:35:32.308Z,97.22
2022-10-01T03:37:59.163Z,97.27
2022-10-01T03:40:26.155Z,97.38
2022-10-01T03:42:56.618Z,97.53
2022-10-01T03:45:53.254Z,97.64
2022-10-01T03:48:19.999Z,97.72
2022-10-01T03:50:57.742Z,97.72
2022-10-01T03:53:27.119Z,97.79
2022-10-01T03:55:55.228Z,97.78
2022-10-01T03:58:22.903Z,97.81
2022-10-01T04:01:08.719Z,97.76
2022-10-01T04:03:35.345Z,97.65
2022-10-01T04:06:21.772Z,97.72
2022-10-01T04:08:53.812Z,97.76
2022-10-01T04:11:20.574Z,97.78
2022-10-01T04:13:47.471Z,97.81
2022-10-01T04:16:15.820Z,97.74
2022-10-01T04:18:42.830Z,97.76
2022-10-01T04:21:09.475Z,97.67
2022-10-01T04:23:36.092Z,97.65
2022-10-01T04:26:03.568Z,97.41
2022-10-01T04:28:31.502Z,97.28
2022-10-01T04:31:17.248Z,97.35
2022-10-01T04:33:44.242Z,97.33
2022-10-01T04:36:12.034Z,97.42
2022-10-01T04:38:38.739Z,97.21
2022-10-01T04:41:05.657Z,97.16
2022-10-01T04:43:32.358Z,96.92
2022-10-01T04:45:58.914Z,96.78
2022-10-01T04:48:25.956Z,96.54
2022-10-01T04:50:52.653Z,96.15
2022-10-01T04:53:19.242Z,96.16
2022-10-01T04:55:46.854Z,95.84
2022-10-01T04:58:13.477Z,95.22
2022-10-01T05:00:40.534Z,94.53
2022-10-01T05:03:07.203Z,94.72
2022-10-01T05:05:38.091Z,94.64
2022-10-01T05:08:04.850Z,94.18
2022-10-01T05:10:31.549Z,93.87
2022-10-01T05:12:58.536Z,94.21
2022-10-01T05:15:25.668Z,94.41
2022-10-01T05:17:53.224Z,94.12
2022-10-01T05:20:21.933Z,94.15
2022-10-01T05:22:52.228Z,93.14
2022-10-01T05:25:20.017Z,93.72
2022-10-01T05:27:46.929Z,94.10
2022-10-01T05:30:18.713Z,94.31
2022-10-01T05:32:54.587Z,94.41
2022-10-01T05:35:21.327Z,94.67
2022-10-01T05:37:47.934Z,95.11
2022-10-01T05:40:15.168Z,95.39
2022-10-01T05:42:47.077Z,95.59
2022-10-01T05:45:13.999Z,95.81
2022-10-01T05:47:42.457Z,95.57
2022-10-01T05:50:09.695Z,95.74
2022-10-01T05:52:36.481Z,95.79
2022-10-01T05:55:03.214Z,95.83
2022-10-01T05:57:31.258Z,95.84
2022-10-01T05:59:58.090Z,95.98
2022-10-01T06:02:24.787Z,95.73
2022-10-01T06:04:51.532Z,95.44
2022-10-01T06:07:18.278Z,95.76
2022-10-01T06:09:45.308Z,95.50
2022-10-01T06:12:14.434Z,95.78
2022-10-01T06:14:43.029Z,95.61
2022-10-01T06:17:09.718Z,95.60
2022-10-01T06:19:36.250Z,95.84
2022-10-01T06:22:03.223Z,95.58
2022-10-01T06:24:31.399Z,95.73
2022-10-01T06:26:57.965Z,95.51
2022-10-01T06:33:39.867Z,94.84
2022-10-01T06:36:06.843Z,94.79
2022-10-01T06:38:33.467Z,93.94
2022-10-01T06:41:02.236Z,93.98
2022-10-01T06:43:31.054Z,94.00
2022-10-01T06:46:01.311Z,94.06
2022-10-01T06:48:31.189Z,93.96
2022-10-01T06:50:58.951Z,93.75
2022-10-01T06:53:28.122Z,93.85
2022-10-01T06:55:55.319Z,93.37
2022-10-01T06:58:26.316Z,93.35
2022-10-01T07:01:01.673Z,93.56
2022-10-01T07:03:28.674Z,93.68
2022-10-01T07:06:01.780Z,93.40
2022-10-01T07:08:28.348Z,93.38
2022-10-01T07:11:00.513Z,93.60
2022-10-01T07:13:27.126Z,93.52
2022-10-01T07:15:53.650Z,93.72
2022-10-01T07:18:20.195Z,93.51
2022-10-01T07:20:47.126Z,93.82
2022-10-01T07:23:15.607Z,93.89
2022-10-01T07:25:43.551Z,93.95
2022-10-01T07:28:16.764Z,94.09
2022-10-01T07:30:57.719Z,94.07
2022-10-01T07:33:24.402Z,94.13
2022-10-01T07:35:51.041Z,93.86
2022-10-01T07:38:18.045Z,93.88
2022-10-01T07:40:44.793Z,94.25
2022-10-01T07:43:14.715Z,94.03
2022-10-01T07:45:41.528Z,94.30
2022-10-01T07:48:08.834Z,94.56
2022-10-01T07:50:35.525Z,94.05
2022-10-01T07:53:02.950Z,93.86
2022-10-01T07:55:30.919Z,93.53
2022-10-01T07:57:59.684Z,94.09
2022-10-01T08:00:27.204Z,94.08
2022-10-01T08:02:56.259Z,94.19
2022-10-01T08:05:35.353Z,94.36
2022-10-01T08:08:04.863Z,94.16
2022-10-01T08:10:36.671Z,93.58
2022-10-01T08:13:14.676Z,93.57
2022-10-01T08:15:43.568Z,93.65
2022-10-01T08:18:11.396Z,93.31
2022-10-01T08:20:41.516Z,93.07
2022-10-01T08:23:10.626Z,92.59
2022-10-01T08:25:39.685Z,91.95
2022-10-01T08:28:07.358Z,92.26
2022-10-01T08:30:34.808Z,92.63
2022-10-01T08:33:02.307Z,92.40
2022-10-01T08:35:30.218Z,92.48
2022-10-01T08:38:06.820Z,92.93
2022-10-01T08:40:38.690Z,92.81
2022-10-01T08:43:20.230Z,93.28
2022-10-01T08:45:53.841Z,93.24
2022-10-01T08:49:01.511Z,93.72
2022-10-01T08:51:37.391Z,93.46
2022-10-01T08:54:18.140Z,94.05
2022-10-01T08:56:47.733Z,93.90
2022-10-01T08:59:37.875Z,94.47
2022-10-01T09:02:21.555Z,93.85
2022-10-01T09:05:13.563Z,94.05
2022-10-01T09:08:02.058Z,93.93
2022-10-01T09:10:35.900Z,94.32
2022-10-01T09:13:24.306Z,94.31
2022-10-01T09:16:02.190Z,94.77
2022-10-01T09:18:41.240Z,94.68
2022-10-01T09:21:47.450Z,94.67
2022-10-01T09:24:44.298Z,94.09
2022-10-01T09:27:19.610Z,93.82
2022-10-01T09:30:14.926Z,94.32
2022-10-01T09:32:54.183Z,94.95
2022-10-01T09:35:33.000Z,95.49
2022-10-01T09:38:52.498Z,95.49
2022-10-01T09:41:19.867Z,95.16
2022-10-01T09:43:47.880Z,95.54
2022-10-01T09:46:17.651Z,95.80
2022-10-01T09:48:47.505Z,96.21
2022-10-01T09:51:16.950Z,96.08
2022-10-01T09:53:52.227Z,95.82
2022-10-01T09:56:30.872Z,95.62
2022-10-01T09:59:02.169Z,94.91
2022-10-01T10:01:43.388Z,95.01
2022-10-01T10:04:11.248Z,94.49
2022-10-01T10:06:39.227Z,93.42
2022-10-01T10:09:16.001Z,93.72
2022-10-01T10:11:45.882Z,93.13
2022-10-01T10:14:20.196Z,93.27
2022-10-01T10:16:49.497Z,93.03
2022-10-01T10:19:28.099Z,92.97
2022-10-01T10:22:00.789Z,92.14
2022-10-01T10:24:33.747Z,92.43
2022-10-01T10:27:03.539Z,92.59
2022-10-01T10:29:32.583Z,92.21
2022-10-01T10:32:03.047Z,92.71
2022-10-01T10:34:39.593Z,92.66
2022-10-01T10:37:13.990Z,92.13
2022-10-01T10:39:44.581Z,91.46
2022-10-01T10:42:18.865Z,89.61
2022-10-01T10:44:49.598Z,88.85
2022-10-01T10:47:19.351Z,88.45
2022-10-01T10:49:48.325Z,88.27
2022-10-01T10:52:29.010Z,87.43
2022-10-01T10:54:58.003Z,86.41
2022-10-01T10:57:26.105Z,85.49
2022-10-01T11:00:03.015Z,82.04
2022-10-01T11:02:32.237Z,79.17
2022-10-01T11:05:21.401Z,77.18
2022-10-01T11:07:51.147Z,75.10
2022-10-01T11:10:24.291Z,74.65
2022-10-01T11:13:09.155Z,76.03
2022-10-01T11:16:03.969Z,76.76
2022-10-01T11:18:58.589Z,76.76
2022-10-01T11:21:30.578Z,76.82
2022-10-01T11:24:14.366Z,78.02
2022-10-01T11:26:57.975Z,76.14
2022-10-01T11:29:38.914Z,77.13
2022-10-01T11:32:34.626Z,78.58
2022-10-01T11:35:13.808Z,78.99
2022-10-01T11:38:11.517Z,76.84
2022-10-01T11:40:44.122Z,76.38
2022-10-01T11:43:38.392Z,76.42
2022-10-01T11:46:25.162Z,76.20
2022-10-01T11:49:02.568Z,76.78
2022-10-01T11:51:42.383Z,77.80
2022-10-01T11:54:14.497Z,78.76
2022-10-01T11:57:05.267Z,78.24
2022-10-01T11:59:50.214Z,78.07
2022-10-01T12:02:28.335Z,78.59
2022-10-01T12:05:07.601Z,78.34
2022-10-01T12:07:53.541Z,77.43
2022-10-01T12:10:37.613Z,77.42
2022-10-01T12:13:16.494Z,77.70
2022-10-01T12:16:08.813Z,78.36
2022-10-01T12:18:51.597Z,78.87
2022-10-01T12:21:27.460Z,79.06
2022-10-01T12:24:03.620Z,78.81
2022-10-01T12:26:47.997Z,79.42
2022-10-01T12:30:02.559Z,79.68
2022-10-01T12:33:05.829Z,79.42
2022-10-01T12:35:41.098Z,78.93
2022-10-01T12:38:27.644Z,79.23
2022-10-01T12:41:12.738Z,77.83
2022-10-01T12:44:06.585Z,78.14
2022-10-01T12:46:42.306Z,78.60
2022-10-01T12:49:22.605Z,78.05
2022-10-01T12:52:04.106Z,76.89
2022-10-01T12:54:54.927Z,73.93
2022-10-01T12:57:39.682Z,72.00
2022-10-01T13:00:18.763Z,70.48
2022-10-01T13:03:10.021Z,69.50
2022-10-01T13:05:54.976Z,67.02
2022-10-01T13:08:45.014Z,66.44
2022-10-01T13:11:38.561Z,66.39
2022-10-01T13:14:07.422Z,65.61
2022-10-01T13:17:09.739Z,65.99
2022-10-01T13:19:55.071Z,66.31
2022-10-01T13:22:47.909Z,67.12
2022-10-01T13:25:36.597Z,67.56
2022-10-01T13:28:17.822Z,68.93
2022-10-01T13:30:44.430Z,68.14
2022-10-01T13:33:24.029Z,65.21
2022-10-01T13:35:57.229Z,65.49
2022-10-01T13:38:43.159Z,64.06
2022-10-01T13:41:20.669Z,63.66
2022-10-01T13:43:58.206Z,63.78
2022-10-01T13:46:34.133Z,64.90
2022-10-01T13:49:17.795Z,64.46
2022-10-01T13:51:45.952Z,65.71
2022-10-01T13:54:24.369Z,63.98
2022-10-01T13:56:51.650Z,64.59
2022-10-01T13:59:32.984Z,63.32
2022-10-01T14:02:00.282Z,63.29
2022-10-01T14:04:34.317Z,63.48
2022-10-01T14:07:14.571Z,62.39
2022-10-01T14:09:49.810Z,62.58
2022-10-01T14:12:47.488Z,63.29
2022-10-01T14:15:36.390Z,62.21
2022-10-01T14:18:08.357Z,62.89
2022-10-01T14:20:52.309Z,61.60
2022-10-01T14:23:48.156Z,62.71
2022-10-01T14:26:24.683Z,62.34
2022-10-01T14:29:00.494Z,62.93
2022-10-01T14:31:38.181Z,61.72
2022-10-01T14:34:23.094Z,62.44
2022-10-01T14:36:54.386Z,61.82
2022-10-01T14:39:24.016Z,62.19
2022-10-01T14:41:53.047Z,62.15
2022-10-01T14:44:22.716Z,61.63
2022-10-01T14:46:51.092Z,61.05
2022-10-01T14:49:26.279Z,61.11
2022-10-01T14:52:07.058Z,61.20
2022-10-01T14:54:47.295Z,60.44
2022-10-01T14:57:27.870Z,60.23
2022-10-01T14:59:55.518Z,60.77
2022-10-01T15:02:25.219Z,61.20
2022-10-01T15:04:55.324Z,60.92
2022-10-01T15:07:22.385Z,61.00
2022-10-01T15:09:49.589Z,61.17
2022-10-01T15:12:19.308Z,60.41
2022-10-01T15:14:47.350Z,60.75
2022-10-01T15:17:23.448Z,60.61
2022-10-01T15:19:52.957Z,59.84
2022-10-01T15:22:28.132Z,59.59
2022-10-01T15:24:59.750Z,60.86
2022-10-01T15:27:26.765Z,60.52
2022-10-01T15:29:56.934Z,59.61
2022-10-01T15:32:25.342Z,60.56
2022-10-01T15:34:58.197Z,60.28
2022-10-01T15:37:35.899Z,60.94
2022-10-01T15:40:06.731Z,61.60
2022-10-01T15:42:34.821Z,62.09
2022-10-01T15:45:07.315Z,62.83
2022-10-01T15:47:37.650Z,63.31
2022-10-01T15:50:10.336Z,63.30
2022-10-01T15:52:52.478Z,62.60
2022-10-01T15:55:24.472Z,62.39
2022-10-01T15:57:57.427Z,62.67
2022-10-01T16:00:26.181Z,62.90
2022-10-01T16:02:54.535Z,63.48
2022-10-01T16:05:24.430Z,64.34
2022-10-01T16:07:58.515Z,64.42
2022-10-01T16:10:38.145Z,64.38
2022-10-01T16:13:29.289Z,64.68
2022-10-01T16:16:11.068Z,64.54
2022-10-01T16:18:37.896Z,64.70
2022-10-01T16:21:06.186Z,64.73
2022-10-01T16:23:42.038Z,65.08
2022-10-01T16:26:30.215Z,64.95
2022-10-01T16:28:58.803Z,64.88
2022-10-01T16:31:26.264Z,64.58
2022-10-01T16:33:53.140Z,64.31
2022-10-01T16:36:21.799Z,64.87
2022-10-01T16:38:48.380Z,66.29
2022-10-01T16:41:23.263Z,66.36
2022-10-01T16:43:51.516Z,66.91
2022-10-01T16:46:18.294Z,67.61
2022-10-01T16:48:49.451Z,67.78
2022-10-01T16:51:16.256Z,68.70
2022-10-01T16:53:45.983Z,69.65
2022-10-01T16:56:14.485Z,69.81
2022-10-01T16:58:43.255Z,70.46
2022-10-01T17:01:14.042Z,70.67
2022-10-01T17:03:40.701Z,71.46
2022-10-01T17:06:07.401Z,70.89
2022-10-01T17:08:34.285Z,71.35
2022-10-01T17:11:02.702Z,71.79
2022-10-01T17:13:32.831Z,72.19
2022-10-01T17:16:00.508Z,71.82
2022-10-01T17:18:27.170Z,72.57
2022-10-01T17:20:53.768Z,71.91
2022-10-01T17:23:22.572Z,72.00
2022-10-01T17:25:49.679Z,72.13
2022-10-01T17:28:18.943Z,71.88
2022-10-01T17:30:48.350Z,72.17
2022-10-01T17:33:17.087Z,70.90
2022-10-01T17:35:45.670Z,71.03
2022-10-01T17:38:12.758Z,71.05
2022-10-01T17:40:41.522Z,70.71
2022-10-01T17:43:11.145Z,71.68
2022-10-01T17:45:38.301Z,70.83
2022-10-01T17:48:05.058Z,71.38
2022-10-01T17:50:31.854Z,71.40
2022-10-01T17:52:59.590Z,71.54
